Latest Weather Observations for Portland Airport

IDV60801

Issued at 2:02 pm EST Sunday 5 July 2015 (issued every 30 minutes, with the page automatically refreshed every 10 minutes)

About weather observations | Map of weather stations | Latest weather observations for VIC | Other Formats
Station Details ID: 090171 Name: CASHMORE AIRPORT Lat: -38.31 Lon: 141.47 Height: 80.9 m
Data from the previous 72 hours. | See also: Recent months at Portland Airport
Date/Time
EST
Temp
°C
App
Temp
°C
Dew
Point
Rel
Hum
%
Delta-T
°C
Wind Press
QNH
hPa
Press
MSL
hPa
Rain
since 9 am
mm
Dir
 
Spd
km/h
Gust
km/h
Spd
kts
Gust
kts
05/02:00pm 13.7 9.5 8.3 70 2.7 NNW 20 28 11 15 1015.3 1015.4 0.0
05/01:30pm 13.5 9.2 7.9 69 2.8 NNW 20 32 11 17 1015.6 1015.7 0.0
05/01:00pm 13.5 8.4 7.7 68 2.9 NNW 24 37 13 20 1015.9 1016.0 0.0
05/12:30pm 13.4 7.9 7.6 68 2.9 NNW 26 39 14 21 1016.1 1016.2 0.0
05/12:00pm 13.1 7.7 8.2 72 2.4 NNW 26 33 14 18 1016.5 1016.6 0.0
05/11:30am 12.6 6.9 8.3 75 2.1 NNW 28 41 15 22 1016.7 1016.8 0.0
05/11:00am 11.3 5.8 7.6 78 1.8 NNW 26 35 14 19 1017.1 1017.2 0.0
05/10:30am 10.7 6.2 7.0 78 1.8 NNW 20 30 11 16 1017.3 1017.4 0.0
05/10:00am 10.3 4.6 6.8 79 1.7 NNW 26 37 14 20 1017.4 1017.5 0.0
05/09:30am 10.1 4.8 6.6 79 1.6 NNW 24 33 13 18 1017.4 1017.5 0.0
05/09:00am 9.6 4.6 6.5 81 1.4 NNW 22 32 12 17 1017.6 1017.7 2.6
05/08:30am 9.4 4.4 6.3 81 1.4 NNW 22 30 12 16 1017.5 1017.6 2.6
05/08:00am 9.4 4.4 6.3 81 1.4 NNW 22 33 12 18 1017.6 1017.7 2.6
05/07:30am 10.0 4.7 6.7 80 1.6 NNW 24 33 13 18 1017.7 1017.8 2.6
05/07:00am 10.0 5.5 6.9 81 1.5 NNW 20 30 11 16 1017.7 1017.8 2.6
05/06:30am 9.7 5.2 7.1 84 1.2 NNW 20 30 11 16 1017.6 1017.7 2.6
05/06:00am 9.4 5.2 7.3 87 1.0 NNW 19 28 10 15 1017.7 1017.8 2.6
05/05:30am 9.2 4.8 7.3 88 0.9 NNW 20 26 11 14 1017.6 1017.7 2.6
05/05:00am 9.2 4.8 7.3 88 0.9 NNW 20 30 11 16 1017.5 1017.6 2.6
05/04:30am 9.2 4.8 7.3 88 0.9 NNW 20 30 11 16 1017.4 1017.5 2.6
05/04:00am 9.1 4.9 7.4 89 0.8 NNW 19 26 10 14 1017.6 1017.7 2.6
05/03:30am 9.1 5.3 7.5 90 0.8 NNW 17 22 9 12 1018.0 1018.1 2.6
05/03:00am 9.5 5.3 7.6 88 0.9 NNW 19 24 10 13 1018.3 1018.4 2.6
05/02:30am 9.9 5.6 8.0 88 0.9 NNW 20 28 11 15 1018.3 1018.4 2.6
05/02:00am 9.9 5.9 8.3 90 0.8 NNW 19 26 10 14 1018.4 1018.5 2.6
05/01:30am 9.7 6.5 8.3 91 0.7 NNW 15 20 8 11 1018.6 1018.7 2.6
05/01:00am 9.8 6.2 8.4 91 0.7 NNW 17 22 9 12 1018.7 1018.8 2.6
05/12:30am 10.1 6.0 8.7 91 0.7 NNW 20 28 11 15 1018.9 1019.0 2.6
05/12:00am 10.4 6.6 9.0 91 0.7 NNW 19 28 10 15 1019.2 1019.3 2.6
 
Date/Time
EST
Temp
°C
App
Temp
°C
Dew
Point
Rel
Hum
%
Delta-T
°C
Wind Press
QNH
hPa
Press
MSL
hPa
Rain
since 9 am
mm
Dir
 
Spd
km/h
Gust
km/h
Spd
kts
Gust
kts
04/11:30pm 10.3 6.3 9.1 92 0.6 NNW 20 32 11 17 1019.4 1019.5 2.6
04/11:00pm 9.7 6.2 8.6 93 0.5 NNW 17 24 9 13 1019.7 1019.8 2.6
04/10:30pm 9.9 6.8 8.7 92 0.6 NNW 15 20 8 11 1019.9 1020.0 2.6
04/10:00pm 9.8 6.6 8.6 92 0.6 NNW 15 20 8 11 1020.1 1020.2 2.6
04/09:30pm 9.9 6.4 8.7 92 0.6 NNW 17 26 9 14 1020.2 1020.3 2.6
04/09:00pm 9.9 6.8 8.8 93 0.5 NNW 15 19 8 10 1020.3 1020.4 2.6
04/08:30pm 10.0 6.9 8.9 93 0.5 NNW 15 20 8 11 1020.2 1020.3 2.6
04/08:00pm 10.0 6.9 8.9 93 0.5 NNW 15 22 8 12 1020.5 1020.6 2.6
04/07:30pm 9.9 6.8 8.8 93 0.5 NNW 15 20 8 11 1020.5 1020.6 2.6
04/07:00pm 10.0 7.0 9.1 94 0.4 NNW 15 20 8 11 1020.3 1020.4 2.6
04/06:30pm 9.9 6.8 9.0 94 0.4 NNW 15 19 8 10 1020.3 1020.4 2.6
04/06:00pm 10.0 7.3 8.9 93 0.5 N 13 19 7 10 1020.1 1020.2 2.6
04/05:30pm 10.5 7.5 9.3 92 0.6 NNW 15 19 8 10 1020.1 1020.2 2.6
04/05:00pm 10.8 7.8 9.4 91 0.7 NNW 15 20 8 11 1020.2 1020.3 2.6
04/04:30pm 11.1 7.8 9.5 90 0.8 NNW 17 24 9 13 1020.3 1020.4 2.6
04/04:00pm 11.3 8.1 9.9 91 0.7 NNW 17 24 9 13 1020.3 1020.4 2.6
04/03:30pm 11.6 7.9 10.2 91 0.7 NNW 20 30 11 16 1020.2 1020.3 2.6
04/03:00pm 11.8 8.8 10.5 92 0.7 NNW 17 22 9 12 1020.3 1020.4 2.6
04/02:41pm 11.8 8.7 10.4 91 0.7 NNW 17 24 9 13 1020.4 1020.5 2.6
04/02:30pm 12.0 9.0 10.7 92 0.7 NNW 17 24 9 13 1020.5 1020.6 2.6
04/02:00pm 11.6 8.6 10.7 94 0.5 NNW 17 22 9 12 1020.5 1020.6 2.6
04/01:30pm 11.2 8.6 10.6 96 0.3 NNW 15 22 8 12 1020.8 1020.9 2.6
04/01:03pm 10.6 7.8 10.0 96 0.3 NNW 15 22 8 12 1021.2 1021.3 2.6
04/01:00pm 10.5 7.3 9.9 96 0.3 NNW 17 22 9 12 1021.2 1021.3 2.6
04/12:58pm 10.4 7.2 9.8 96 0.3 NNW 17 22 9 12 1021.1 1021.2 2.6
04/12:37pm 10.5 7.2 9.7 95 0.4 NNW 17 24 9 13 1021.4 1021.6 2.2
04/12:30pm 10.9 6.8 10.1 95 0.4 NW 22 30 12 16 1021.5 1021.7 2.2
04/12:19pm 11.0 7.3 10.2 95 0.4 NW 20 26 11 14 1021.7 1021.9 1.8
04/12:00pm 11.2 7.7 10.3 94 0.5 NW 19 24 10 13 1021.7 1021.9 1.2
04/11:30am 10.8 7.2 9.7 93 0.6 N 19 24 10 13 1022.1 1022.3 0.8
04/11:13am 11.2 7.7 10.1 93 0.6 NNW 19 30 10 16 1022.2 1022.4 0.8
04/11:09am 11.1 8.0 10.2 94 0.5 NNW 17 22 9 12 1022.2 1022.4 0.8
04/11:00am 10.2 6.8 9.3 94 0.4 NNW 17 26 9 14 1022.2 1022.4 0.8
04/10:30am 9.4 5.9 8.8 96 0.3 NNW 17 20 9 11 1022.4 1022.6 0.8
04/10:00am 9.1 5.9 8.5 96 0.3 NNW 15 20 8 11 1022.3 1022.5 0.8
04/09:34am 8.9 4.9 8.3 96 0.3 NNW 19 24 10 13 1022.1 1022.3 0.8
04/09:30am 8.7 4.7 8.1 96 0.3 NNW 19 26 10 14 1022.1 1022.3 0.8
04/09:13am 8.7 4.5 8.1 96 0.3 NNW 20 28 11 15 1022.0 1022.2 0.4
04/09:00am 8.7 4.6 7.9 95 0.4 NNW 19 24 10 13 1022.0 1022.2 0.8
04/08:41am 8.7 4.6 7.9 95 0.4 NNW 19 28 10 15 1021.9 1022.1 0.6
04/08:37am 8.7 4.6 7.9 95 0.4 NNW 19 28 10 15 1021.9 1022.1 0.6
04/08:30am 8.7 4.4 7.9 95 0.4 NNW 20 26 11 14 1021.8 1022.0 0.4
04/08:26am 8.6 4.3 7.8 95 0.4 NNW 20 26 11 14 1021.8 1022.0 0.4
04/08:12am 8.5 4.4 7.7 95 0.4 NNW 19 28 10 15 1021.7 1021.9 0.4
04/08:00am 8.6 4.5 7.8 95 0.4 NNW 19 24 10 13 1021.6 1021.8 0.4
04/07:54am 8.6 4.5 7.8 95 0.4 NNW 19 24 10 13 1021.6 1021.8 0.4
04/07:37am 8.6 4.5 7.7 94 0.4 NNW 19 26 10 14 1021.5 1021.7 0.4
04/07:30am 8.6 4.5 7.7 94 0.4 NNW 19 24 10 13 1021.5 1021.7 0.4
04/07:00am 8.3 4.0 7.2 93 0.5 NNW 19 24 10 13 1021.5 1021.7 0.4
04/06:58am 8.3 4.0 7.2 93 0.5 NNW 19 24 10 13 1021.4 1021.6 0.4
04/06:30am 8.5 4.2 7.1 91 0.7 NNW 19 24 10 13 1021.3 1021.5 0.2
04/06:18am 8.5 4.6 7.0 90 0.7 NNW 17 26 9 14 1021.1 1021.2 0.0
04/06:00am 8.3 4.3 6.6 89 0.8 NW 17 24 9 13 1021.1 1021.2 0.0
04/05:38am 8.3 4.2 6.4 88 0.9 NNW 17 24 9 13 1020.9 1021.0 0.0
04/05:30am 8.7 4.7 6.7 87 0.9 NNW 17 24 9 13 1021.0 1021.1 0.0
04/05:00am 8.6 3.9 6.2 85 1.1 NW 20 30 11 16 1020.8 1020.9 0.0
04/04:30am 8.4 3.7 6.2 86 1.0 NNW 20 30 11 16 1020.8 1020.9 0.0
04/04:00am 8.4 3.7 6.2 86 1.0 NNW 20 30 11 16 1021.0 1021.1 0.0
04/03:30am 8.7 4.1 5.6 81 1.4 NNW 19 30 10 16 1021.1 1021.2 0.0
04/03:00am 8.7 3.5 5.4 80 1.5 NW 22 30 12 16 1021.3 1021.5 0.0
04/02:30am 8.7 3.5 5.3 79 1.5 NNW 22 32 12 17 1021.3 1021.5 0.0
04/02:00am 8.6 3.7 5.2 79 1.5 NNW 20 32 11 17 1021.6 1021.8 0.0
04/01:30am 8.3 2.6 5.1 80 1.4 NNW 24 35 13 19 1021.6 1021.8 0.0
04/01:00am 8.4 3.1 5.2 80 1.4 NNW 22 33 12 18 1021.8 1022.0 0.0
04/12:30am 8.6 3.7 5.0 78 1.6 NNW 20 30 11 16 1022.2 1022.4 0.0
04/12:00am 8.7 3.3 4.7 76 1.8 NNW 22 35 12 19 1022.5 1022.7 0.0
 
Date/Time
EST
Temp
°C
App
Temp
°C
Dew
Point
Rel
Hum
%
Delta-T
°C
Wind Press
QNH
hPa
Press
MSL
hPa
Rain
since 9 am
mm
Dir
 
Spd
km/h
Gust
km/h
Spd
kts
Gust
kts
03/11:30pm 8.5 3.4 4.1 74 1.9 NNW 20 32 11 17 1022.7 1022.9 0.0
03/11:00pm 8.8 3.9 4.2 73 2.0 NNW 19 26 10 14 1023.0 1023.2 0.0
03/10:30pm 8.6 3.7 4.0 73 2.0 NNW 19 28 10 15 1023.3 1023.5 0.0
03/10:00pm 8.7 3.1 3.5 70 2.2 NNW 22 32 12 17 1023.4 1023.6 0.0
03/09:30pm 8.7 3.1 3.3 69 2.3 NNW 22 33 12 18 1023.6 1023.8 0.0
03/09:00pm 8.6 3.4 3.6 71 2.2 NNW 20 32 11 17 1023.8 1024.0 0.0
03/08:30pm 8.4 3.4 3.7 72 2.0 NNW 19 24 10 13 1024.0 1024.2 0.0
03/08:00pm 8.5 3.9 3.9 73 2.0 NNW 17 24 9 13 1024.1 1024.3 0.0
03/07:30pm 8.5 4.4 4.1 74 1.9 NNW 15 20 8 11 1024.3 1024.5 0.0
03/07:00pm 8.4 3.6 4.4 76 1.8 NNW 19 33 10 18 1024.4 1024.6 0.0
03/06:30pm 7.9 4.2 4.3 78 1.6 NNW 13 20 7 11 1024.4 1024.6 0.0
03/06:00pm 7.8 4.1 4.6 80 1.4 N 13 17 7 9 1024.3 1024.5 0.0
03/05:30pm 8.3 4.2 4.5 77 1.7 N 15 20 8 11 1024.3 1024.5 0.0
03/05:00pm 8.7 4.6 4.5 75 1.8 N 15 20 8 11 1024.5 1024.7 0.0
03/04:30pm 9.0 4.5 4.2 72 2.1 NNW 17 24 9 13 1024.8 1025.0 0.0
03/04:00pm 9.2 4.7 4.2 71 2.2 NNW 17 24 9 13 1025.0 1025.2 0.0
03/03:30pm 9.3 4.3 3.7 68 2.4 NNW 19 26 10 14 1025.3 1025.4 0.0
03/03:00pm 9.6 4.6 3.6 66 2.6 NNW 19 24 10 13 1025.3 1025.4 0.0
03/02:30pm 10.0 5.0 3.7 65 2.8 NNW 19 26 10 14 1025.4 1025.5 0.0
03/02:00pm 9.8 5.2 3.5 65 2.7 NNW 17 24 9 13 1025.7 1025.8 0.0
03/01:30pm 9.6 4.6 3.4 65 2.7 NNW 19 28 10 15 1026.0 1026.1 0.0
03/01:00pm 9.5 4.5 3.7 67 2.5 NNW 19 24 10 13 1026.6 1026.7 0.0
03/12:30pm 9.4 4.4 3.8 68 2.5 NNW 19 26 10 14 1027.0 1027.1 0.0
03/12:00pm 8.9 3.8 3.1 67 2.5 NNW 19 28 10 15 1027.6 1027.7 0.0
03/11:30am 8.7 4.0 3.3 69 2.3 NNW 17 26 9 14 1028.0 1028.1 0.0
03/11:00am 8.5 3.9 3.8 72 2.0 NNW 17 22 9 12 1028.1 1028.2 0.0
03/10:30am 8.1 3.4 3.4 72 2.0 NNW 17 22 9 12 1028.1 1028.2 0.0
03/10:00am 7.6 3.8 3.8 77 1.6 N 13 17 7 9 1028.2 1028.3 0.0
03/09:30am 7.1 3.3 3.9 80 1.4 NNW 13 17 7 9 1028.2 1028.3 0.0
03/09:00am 6.8 3.3 3.6 80 1.4 NNW 11 15 6 8 1028.3 1028.4 0.2
03/08:30am 6.8 2.9 3.4 79 1.4 NNW 13 17 7 9 1028.5 1028.6 0.2
03/08:00am 6.5 3.1 3.8 83 1.1 N 11 13 6 7 1028.4 1028.5 0.2
03/07:30am 6.3 3.3 4.0 85 1.0 N 9 15 5 8 1028.5 1028.6 0.2
03/07:00am 6.0 3.4 4.0 87 0.8 N 7 9 4 5 1028.4 1028.5 0.2
03/06:30am 6.0 3.0 4.0 87 0.9 N 9 11 5 6 1028.1 1028.2 0.2
03/06:00am 6.0 3.5 3.8 86 0.9 N 6 7 3 4 1028.0 1028.1 0.2
03/05:30am 6.5 3.3 3.3 80 1.3 N 9 13 5 7 1028.0 1028.1 0.2
03/05:00am 6.6 3.5 3.8 82 1.2 NNW 9 11 5 6 1028.2 1028.3 0.2
03/04:30am 6.6 3.6 3.9 83 1.2 N 9 13 5 7 1028.3 1028.4 0.2
03/04:00am 7.7 5.0 3.7 76 1.7 NW 7 15 4 8 1028.3 1028.4 0.2
03/03:30am 6.9 4.0 4.6 85 1.0 NNW 9 11 5 6 1028.7 1028.8 0.2
03/03:00am 7.1 5.9 4.6 84 1.1 CALM 0 0 0 0 1028.8 1028.9 0.2
03/02:30am 6.8 4.0 5.0 88 0.8 WNW 9 13 5 7 1028.9 1029.0 0.2
03/02:00am 6.6 5.4 4.6 87 0.9 CALM 0 0 0 0 1028.8 1028.9 0.2
03/01:30am 6.5 4.0 4.5 87 0.9 NNW 7 9 4 5 1028.9 1029.0 0.2
03/01:00am 6.6 4.1 4.6 87 0.9 NNW 7 11 4 6 1029.2 1029.3 0.2
03/12:30am 6.5 5.3 4.5 87 0.9 CALM 0 0 0 0 1029.7 1029.8 0.2
03/12:00am 6.6 3.2 4.1 84 1.1 SE 11 13 6 7 1029.8 1029.9 0.2
 
Date/Time
EST
Temp
°C
App
Temp
°C
Dew
Point
Rel
Hum
%
Delta-T
°C
Wind Press
QNH
hPa
Press
MSL
hPa
Rain
since 9 am
mm
Dir
 
Spd
km/h
Gust
km/h
Spd
kts
Gust
kts
02/11:30pm 6.6 3.2 4.1 84 1.1 SSE 11 15 6 8 1030.0 1030.1 0.2
02/11:00pm 6.8 3.8 3.9 82 1.2 SSE 9 11 5 6 1030.0 1030.1 0.2
02/10:30pm 7.0 4.5 3.6 79 1.5 SSE 6 7 3 4 1030.0 1030.1 0.2
02/10:00pm 7.0 4.5 4.0 81 1.3 SSE 6 9 3 5 1030.1 1030.2 0.2
02/09:30pm 6.8 5.3 3.2 78 1.5 CALM 0 0 0 0 1030.0 1030.1 0.2
02/09:00pm 7.0 4.4 3.1 76 1.6 WSW 6 9 3 5 1029.8 1029.9 0.2
02/08:30pm 7.3 3.7 3.2 75 1.7 WSW 11 13 6 7 1029.7 1029.8 0.2
02/08:00pm 6.2 2.9 2.7 78 1.4 SW 9 13 5 7 1029.6 1029.7 0.2
02/07:30pm 8.0 4.9 3.7 74 1.9 SSE 9 17 5 9 1029.4 1029.5 0.2
02/07:00pm 7.9 4.9 4.1 77 1.6 W 9 13 5 7 1029.2 1029.3 0.2
02/06:30pm 7.9 4.8 3.8 75 1.8 WSW 9 13 5 7 1029.1 1029.2 0.2
02/06:00pm 8.2 5.0 3.1 70 2.2 SSW 9 13 5 7 1028.8 1028.9 0.2
02/05:30pm 8.4 5.9 5.0 79 1.5 WSW 7 9 4 5 1028.6 1028.7 0.2
02/05:00pm 9.0 4.9 4.6 74 1.9 SW 15 24 8 13 1028.4 1028.5 0.2
02/04:30pm 10.2 7.4 3.3 62 3.0 SW 7 17 4 9 1028.2 1028.3 0.0
02/04:00pm 9.8 6.2 2.9 62 2.9 SSW 11 17 6 9 1028.0 1028.1 0.0
02/03:30pm 10.7 7.1 3.0 59 3.4 SSW 11 15 6 8 1027.7 1027.8 0.0
02/03:00pm 10.4 6.1 3.4 62 3.0 SSW 15 22 8 12 1027.5 1027.6 0.0
02/02:30pm 10.9 6.9 3.0 58 3.4 SW 13 22 7 12 1027.3 1027.4 0.0

Other Formats:

Comma delimited format used in spreadsheet applications
http://www.bom.gov.au/fwo/IDV60801/IDV60801.94828.axf

JavaScript Object Notation format (JSON) in row-major order
http://www.bom.gov.au/fwo/IDV60801/IDV60801.94828.json